createdAt,value
2018-01-13T00:00:26.272Z,0
2018-01-13T00:01:06.674Z,0
2018-01-13T00:01:47.021Z,0
2018-01-13T00:02:27.401Z,0
2018-01-13T00:03:07.779Z,0
2018-01-13T00:03:48.172Z,0
2018-01-13T00:04:28.555Z,0
2018-01-13T00:05:08.948Z,0
2018-01-13T00:05:49.408Z,0
2018-01-13T00:06:29.737Z,0
2018-01-13T00:07:10.115Z,0
2018-01-13T00:07:50.499Z,0
2018-01-13T00:08:30.895Z,0
2018-01-13T00:09:11.301Z,0
2018-01-13T00:09:51.673Z,0
2018-01-13T00:10:32.064Z,0
2018-01-13T00:11:12.461Z,0
2018-01-13T00:11:52.829Z,0
2018-01-13T00:12:33.261Z,0
2018-01-13T00:13:13.617Z,0
2018-01-13T00:13:54.074Z,0
2018-01-13T00:14:34.393Z,0
2018-01-13T00:15:14.778Z,0
2018-01-13T00:15:55.194Z,0
2018-01-13T00:16:35.629Z,0
2018-01-13T00:17:16.006Z,0
2018-01-13T00:17:56.455Z,0
2018-01-13T00:18:36.812Z,0
2018-01-13T00:19:17.162Z,0
2018-01-13T00:19:57.569Z,0
2018-01-13T00:22:21.863Z,0
2018-01-13T00:23:14.307Z,0
2018-01-13T00:24:06.266Z,0
2018-01-13T00:24:58.367Z,0
2018-01-13T00:25:50.767Z,0
2018-01-13T00:26:43.082Z,0
2018-01-13T00:27:36.157Z,0
2018-01-13T00:28:29.891Z,0
2018-01-13T00:29:21.878Z,0
2018-01-13T00:30:14.211Z,0
2018-01-13T00:31:06.671Z,0
2018-01-13T00:31:59.143Z,0
2018-01-13T00:32:51.138Z,0
2018-01-13T00:33:43.330Z,0
2018-01-13T00:34:35.171Z,0
2018-01-13T00:35:27.164Z,0
2018-01-13T00:36:19.250Z,0
2018-01-13T00:37:11.287Z,0
2018-01-13T00:38:04.347Z,0
2018-01-13T00:38:56.681Z,0
2018-01-13T00:39:49.178Z,0
2018-01-13T00:40:41.540Z,0
2018-01-13T00:41:33.881Z,0
2018-01-13T00:42:27.275Z,0
2018-01-13T00:43:19.207Z,0
2018-01-13T00:44:11.664Z,0
2018-01-13T00:45:04.131Z,0
2018-01-13T00:45:56.683Z,0
2018-01-13T00:46:49.052Z,0
2018-01-13T00:47:41.198Z,0
2018-01-13T00:48:33.760Z,0
2018-01-13T00:49:26.204Z,0
2018-01-13T00:50:18.697Z,0
2018-01-13T00:51:10.995Z,0
2018-01-13T00:52:02.684Z,0
2018-01-13T00:52:54.820Z,0
2018-01-13T00:53:47.312Z,0
2018-01-13T00:54:39.397Z,0
2018-01-13T00:55:31.930Z,0
2018-01-13T00:56:24.241Z,0
2018-01-13T00:57:16.650Z,0
2018-01-13T00:58:09.124Z,0
2018-01-13T00:59:01.716Z,0
2018-01-13T00:59:54.229Z,0
2018-01-13T01:00:47.462Z,0
2018-01-13T01:01:39.627Z,0
2018-01-13T01:02:32.269Z,0
2018-01-13T01:03:24.676Z,0
2018-01-13T01:04:16.780Z,0
2018-01-13T01:05:09.205Z,0
2018-01-13T01:06:01.741Z,0
2018-01-13T01:06:53.819Z,0
2018-01-13T01:07:46.109Z,0
2018-01-13T01:08:38.401Z,0
2018-01-13T01:09:30.365Z,0
2018-01-13T01:10:22.178Z,0
2018-01-13T01:11:15.742Z,0
2018-01-13T01:14:07.530Z,0
2018-01-13T01:14:59.946Z,0
2018-01-13T01:15:52.503Z,0
2018-01-13T01:16:44.840Z,0
2018-01-13T01:17:37.338Z,0
2018-01-13T01:18:30.699Z,0
2018-01-13T01:19:24.840Z,0
2018-01-13T01:20:16.987Z,0
2018-01-13T01:21:09.025Z,0
2018-01-13T01:22:01.849Z,0
2018-01-13T01:22:54.461Z,0
2018-01-13T01:23:47.096Z,0
2018-01-13T01:24:39.579Z,0
2018-01-13T01:25:32.631Z,0
2018-01-13T01:26:25.994Z,0
2018-01-13T01:27:18.083Z,0
2018-01-13T01:28:10.060Z,0
2018-01-13T01:29:01.750Z,0
2018-01-13T01:29:49.636Z,0
2018-01-13T01:30:30.010Z,0
2018-01-13T01:31:10.478Z,0
2018-01-13T01:31:50.810Z,0
2018-01-13T01:32:31.252Z,0
2018-01-13T01:33:11.618Z,0
2018-01-13T01:33:52.029Z,0
2018-01-13T01:34:32.401Z,0
2018-01-13T01:35:12.838Z,0
2018-01-13T01:35:53.160Z,0
2018-01-13T01:36:33.549Z,0
2018-01-13T01:37:14.026Z,0
2018-01-13T01:37:54.406Z,0
2018-01-13T01:38:34.768Z,0
2018-01-13T01:39:15.173Z,0
2018-01-13T01:39:55.661Z,0
2018-01-13T01:40:36.059Z,0
2018-01-13T01:41:16.343Z,0
2018-01-13T01:41:56.799Z,0
2018-01-13T01:42:37.180Z,0
2018-01-13T01:43:17.653Z,0
2018-01-13T01:43:57.985Z,0
2018-01-13T01:44:38.385Z,0
2018-01-13T01:45:18.739Z,0
2018-01-13T01:45:59.156Z,0
2018-01-13T01:46:39.603Z,0
2018-01-13T01:47:19.999Z,0
2018-01-13T01:48:00.328Z,0
2018-01-13T01:48:40.736Z,0
2018-01-13T01:49:21.123Z,0
2018-01-13T01:50:01.579Z,0
2018-01-13T01:50:41.899Z,0
2018-01-13T01:51:22.386Z,0
2018-01-13T01:52:02.741Z,0
2018-01-13T01:52:43.165Z,0
2018-01-13T01:53:23.607Z,0
2018-01-13T01:54:03.963Z,0
2018-01-13T01:54:44.321Z,0
2018-01-13T01:55:24.752Z,0
2018-01-13T01:56:05.189Z,0
2018-01-13T01:56:45.534Z,0
2018-01-13T01:57:25.962Z,0
2018-01-13T01:58:06.346Z,0
2018-01-13T01:58:46.704Z,0
2018-01-13T01:59:27.084Z,0
2018-01-13T02:00:07.538Z,0
2018-01-13T02:00:47.959Z,0
2018-01-13T02:01:28.312Z,0
2018-01-13T02:02:08.776Z,0
2018-01-13T02:02:49.122Z,0
2018-01-13T02:03:29.581Z,0
2018-01-13T02:04:10.005Z,0
2018-01-13T02:04:50.384Z,0
2018-01-13T02:05:30.782Z,0
2018-01-13T02:06:11.203Z,0
2018-01-13T02:06:51.535Z,0
2018-01-13T02:07:31.950Z,0
2018-01-13T02:08:12.300Z,0
2018-01-13T02:08:52.738Z,0
2018-01-13T02:09:33.140Z,0
2018-01-13T02:10:13.508Z,0
2018-01-13T02:10:53.962Z,0
2018-01-13T02:11:34.306Z,0
2018-01-13T02:12:14.673Z,0
2018-01-13T02:12:55.081Z,0
2018-01-13T02:13:35.468Z,0
2018-01-13T02:14:15.862Z,0
2018-01-13T02:14:56.297Z,0
2018-01-13T02:15:36.762Z,0
2018-01-13T02:16:17.050Z,0
2018-01-13T02:16:57.503Z,0
2018-01-13T02:17:37.963Z,0
2018-01-13T02:18:18.317Z,0
2018-01-13T02:18:58.726Z,0
2018-01-13T02:19:39.079Z,0
2018-01-13T02:20:19.533Z,0
2018-01-13T02:20:59.916Z,0
2018-01-13T02:21:40.324Z,0
2018-01-13T02:22:20.723Z,0
2018-01-13T02:23:01.099Z,0
2018-01-13T02:23:41.518Z,0
2018-01-13T02:24:21.865Z,0
2018-01-13T02:25:02.273Z,0
2018-01-13T02:25:42.719Z,0
2018-01-13T02:26:23.090Z,0
2018-01-13T02:27:03.471Z,0
2018-01-13T02:27:43.842Z,0
2018-01-13T02:28:24.312Z,0
2018-01-13T02:29:04.642Z,0
2018-01-13T02:29:45.029Z,0
2018-01-13T02:30:25.488Z,0
2018-01-13T02:31:05.870Z,0
2018-01-13T02:31:46.329Z,0
2018-01-13T02:32:26.703Z,0
2018-01-13T02:33:07.090Z,0
2018-01-13T02:33:47.543Z,0
2018-01-13T02:34:27.955Z,0
2018-01-13T02:35:08.251Z,0
2018-01-13T02:35:48.691Z,0
2018-01-13T02:36:29.085Z,0
2018-01-13T02:37:09.483Z,0
2018-01-13T02:37:49.868Z,0
2018-01-13T02:38:30.284Z,0
2018-01-13T02:39:10.727Z,0
2018-01-13T02:39:51.149Z,0
2018-01-13T02:40:31.512Z,0
2018-01-13T02:41:12.014Z,0
2018-01-13T02:41:52.333Z,0
2018-01-13T02:42:32.678Z,0
2018-01-13T02:43:13.093Z,0
2018-01-13T02:43:53.492Z,0
2018-01-13T02:44:33.952Z,0
2018-01-13T02:45:14.326Z,0
2018-01-13T02:45:54.798Z,0
2018-01-13T02:46:35.255Z,0
2018-01-13T02:47:15.578Z,0
2018-01-13T02:47:56.037Z,0
2018-01-13T02:48:36.338Z,0
2018-01-13T02:49:16.789Z,0
2018-01-13T02:49:57.234Z,0
2018-01-13T02:50:37.595Z,0
2018-01-13T02:51:17.951Z,0
2018-01-13T02:51:58.336Z,0
2018-01-13T02:52:38.712Z,0
2018-01-13T02:53:19.206Z,0
2018-01-13T02:53:59.581Z,0
2018-01-13T02:54:39.964Z,0
2018-01-13T02:55:20.367Z,0
2018-01-13T02:56:00.755Z,0
2018-01-13T02:56:41.203Z,0
2018-01-13T02:57:21.524Z,0
2018-01-13T02:58:01.953Z,0
2018-01-13T02:58:42.360Z,0
2018-01-13T02:59:22.806Z,0
2018-01-13T03:00:03.200Z,0
2018-01-13T03:00:43.542Z,0
2018-01-13T03:01:23.974Z,0
2018-01-13T03:02:04.370Z,0
2018-01-13T03:02:44.744Z,0
2018-01-13T03:03:25.132Z,0
2018-01-13T03:04:05.553Z,0
2018-01-13T03:04:45.943Z,0
2018-01-13T03:05:26.304Z,0
2018-01-13T03:06:06.710Z,0
2018-01-13T03:06:47.085Z,0
2018-01-13T03:07:27.535Z,0
2018-01-13T03:08:07.867Z,0
2018-01-13T03:08:48.250Z,0
2018-01-13T03:09:28.656Z,0
2018-01-13T03:10:09.076Z,0
2018-01-13T03:10:49.519Z,0
2018-01-13T03:11:29.892Z,0
2018-01-13T03:12:10.300Z,0
2018-01-13T03:12:50.688Z,0
2018-01-13T03:13:31.085Z,0
2018-01-13T03:14:11.469Z,0
2018-01-13T03:14:51.844Z,0
2018-01-13T03:15:32.270Z,0
2018-01-13T03:16:12.642Z,0
2018-01-13T03:16:53.080Z,0
2018-01-13T03:17:33.486Z,0
2018-01-13T03:18:13.857Z,0
2018-01-13T03:18:54.191Z,0
2018-01-13T03:19:34.657Z,0
2018-01-13T03:20:15.072Z,0
2018-01-13T03:20:55.495Z,0
2018-01-13T03:21:35.840Z,0
2018-01-13T03:22:16.316Z,0
2018-01-13T03:22:56.699Z,0
2018-01-13T03:23:37.108Z,0
2018-01-13T03:24:17.509Z,0
2018-01-13T03:24:57.862Z,0
2018-01-13T03:25:38.259Z,0
2018-01-13T03:26:18.738Z,0
2018-01-13T03:26:59.076Z,0
2018-01-13T03:27:39.423Z,0
2018-01-13T03:28:19.913Z,0
2018-01-13T03:29:00.272Z,0
2018-01-13T03:29:40.669Z,0
2018-01-13T03:30:21.056Z,0
2018-01-13T03:31:01.493Z,0
2018-01-13T03:31:41.861Z,0
2018-01-13T03:32:22.260Z,0
2018-01-13T03:33:02.694Z,0
2018-01-13T03:33:43.046Z,0
2018-01-13T03:34:23.442Z,0
2018-01-13T03:35:03.916Z,0
2018-01-13T03:35:44.258Z,0
2018-01-13T03:36:24.579Z,0
2018-01-13T03:37:05.017Z,0
2018-01-13T03:37:45.386Z,0
2018-01-13T03:38:25.872Z,0
2018-01-13T03:39:06.229Z,0
2018-01-13T03:39:46.625Z,0
2018-01-13T03:40:27.036Z,0
2018-01-13T03:41:07.388Z,0
2018-01-13T03:41:47.732Z,0
2018-01-13T03:42:28.216Z,0
2018-01-13T03:43:08.624Z,0
2018-01-13T03:43:49.009Z,0
2018-01-13T03:44:29.427Z,0
2018-01-13T03:45:09.773Z,0
2018-01-13T03:45:50.234Z,0
2018-01-13T03:46:30.591Z,0
2018-01-13T03:47:11.025Z,0
2018-01-13T03:47:51.448Z,0
2018-01-13T03:48:31.802Z,0
2018-01-13T03:49:12.255Z,0
2018-01-13T03:49:52.569Z,0
2018-01-13T03:50:32.998Z,0
2018-01-13T03:51:13.351Z,0
2018-01-13T03:51:53.749Z,0
2018-01-13T03:52:34.154Z,0
2018-01-13T03:53:14.580Z,0
2018-01-13T03:53:54.925Z,0
2018-01-13T03:54:35.387Z,0
2018-01-13T03:55:15.791Z,0
2018-01-13T03:55:56.134Z,0
2018-01-13T03:56:36.486Z,0
2018-01-13T03:57:16.881Z,0
2018-01-13T03:57:57.340Z,0
2018-01-13T03:58:37.730Z,0
2018-01-13T03:59:18.083Z,0
2018-01-13T03:59:58.552Z,0
2018-01-13T04:00:38.923Z,0
2018-01-13T04:01:19.321Z,0
2018-01-13T04:01:59.785Z,0
2018-01-13T04:02:40.179Z,0
2018-01-13T04:03:20.474Z,0
2018-01-13T04:41:43.965Z,0
2018-01-13T04:42:36.129Z,0
2018-01-13T04:43:29.141Z,0
2018-01-13T04:44:21.498Z,0
2018-01-13T04:45:13.750Z,0
2018-01-13T04:46:05.793Z,0
2018-01-13T04:46:58.038Z,0
2018-01-13T04:47:49.600Z,0
2018-01-13T04:48:37.429Z,0
2018-01-13T04:49:17.556Z,0
2018-01-13T04:49:57.925Z,0
2018-01-13T04:50:38.303Z,0
2018-01-13T04:51:18.811Z,0
2018-01-13T04:51:59.202Z,0
2018-01-13T04:52:39.540Z,0
2018-01-13T04:53:19.969Z,0
2018-01-13T04:54:00.343Z,0
2018-01-13T04:54:40.704Z,0
2018-01-13T04:55:21.237Z,0
2018-01-13T04:56:01.526Z,0
2018-01-13T04:56:41.906Z,0
2018-01-13T04:57:22.350Z,0
2018-01-13T04:58:02.769Z,0
2018-01-13T04:58:43.170Z,0
2018-01-13T04:59:23.575Z,0
2018-01-13T05:00:03.930Z,0
2018-01-13T05:00:44.272Z,0
2018-01-13T05:01:24.811Z,0
2018-01-13T05:02:05.097Z,0
2018-01-13T05:02:45.510Z,0
2018-01-13T05:03:25.893Z,0
2018-01-13T05:04:06.331Z,0
2018-01-13T05:04:46.692Z,0
2018-01-13T05:05:27.106Z,0
2018-01-13T05:06:07.488Z,0
2018-01-13T05:06:47.921Z,0
2018-01-13T05:07:28.283Z,0
2018-01-13T05:08:08.708Z,0
2018-01-13T05:08:49.088Z,0
2018-01-13T05:09:29.466Z,0
2018-01-13T05:10:09.906Z,0
2018-01-13T05:10:50.325Z,0
2018-01-13T05:11:30.657Z,0
2018-01-13T05:12:11.082Z,0
2018-01-13T05:12:51.497Z,0
2018-01-13T05:13:31.942Z,0
2018-01-13T05:14:12.363Z,0
2018-01-13T05:14:52.714Z,0
2018-01-13T05:15:33.207Z,0
2018-01-13T05:16:13.556Z,0
2018-01-13T05:16:53.896Z,0
2018-01-13T05:17:34.368Z,0
2018-01-13T05:18:14.712Z,0
2018-01-13T05:18:55.142Z,0
2018-01-13T05:19:35.503Z,0
2018-01-13T05:20:15.930Z,0
2018-01-13T05:20:56.280Z,0
2018-01-13T05:21:36.662Z,0
2018-01-13T05:22:17.073Z,0
2018-01-13T05:22:57.481Z,0
2018-01-13T05:23:37.858Z,0
2018-01-13T05:24:18.215Z,0
2018-01-13T05:24:58.652Z,0
2018-01-13T05:25:39.249Z,0
2018-01-13T05:26:19.674Z,0
2018-01-13T05:27:00.024Z,0
2018-01-13T05:27:40.494Z,0
2018-01-13T05:28:20.855Z,0
2018-01-13T05:29:01.298Z,0
2018-01-13T05:29:41.658Z,0
2018-01-13T05:30:22.110Z,0
2018-01-13T05:31:02.406Z,0
2018-01-13T05:31:42.883Z,0
2018-01-13T05:32:23.202Z,0
2018-01-13T05:33:03.704Z,0
2018-01-13T05:33:44.103Z,0
2018-01-13T05:34:24.449Z,0
2018-01-13T05:35:04.876Z,0
2018-01-13T05:35:45.214Z,0
2018-01-13T05:36:25.666Z,0
2018-01-13T05:37:06.010Z,0
2018-01-13T05:37:46.399Z,0
2018-01-13T05:38:26.855Z,0
2018-01-13T05:39:07.209Z,0
2018-01-13T05:39:47.591Z,0
2018-01-13T05:40:27.993Z,0
2018-01-13T05:41:08.343Z,0
2018-01-13T05:41:48.807Z,0
2018-01-13T05:42:30.181Z,0
2018-01-13T05:43:09.995Z,0
2018-01-13T05:43:50.251Z,0
2018-01-13T05:44:30.682Z,0
2018-01-13T05:45:11.135Z,0
2018-01-13T05:45:51.402Z,0
2018-01-13T05:46:31.864Z,0
2018-01-13T05:47:12.258Z,0
2018-01-13T05:47:52.623Z,0
2018-01-13T05:48:33.145Z,0
2018-01-13T05:49:13.524Z,0
2018-01-13T05:49:53.975Z,0
2018-01-13T05:50:34.352Z,0
2018-01-13T05:51:14.690Z,0
2018-01-13T05:51:55.096Z,0
2018-01-13T05:52:35.458Z,0
2018-01-13T05:53:15.831Z,0
2018-01-13T05:53:56.284Z,0
2018-01-13T05:54:36.702Z,0
2018-01-13T05:55:17.045Z,0
2018-01-13T05:55:57.512Z,0
2018-01-13T05:56:37.837Z,0
2018-01-13T05:57:19.016Z,0
2018-01-13T05:57:59.331Z,0
2018-01-13T05:58:39.866Z,0
2018-01-13T05:59:20.210Z,0
2018-01-13T06:00:00.529Z,0
2018-01-13T06:00:41.029Z,0
2018-01-13T06:01:21.458Z,0
2018-01-13T06:02:01.927Z,0
2018-01-13T06:02:42.344Z,0
2018-01-13T06:03:22.885Z,0
2018-01-13T06:04:03.051Z,0
2018-01-13T06:04:43.525Z,0
2018-01-13T06:05:24.009Z,0
2018-01-13T06:06:04.391Z,0
2018-01-13T06:06:44.798Z,0
2018-01-13T06:07:25.146Z,0
2018-01-13T06:08:05.686Z,0
2018-01-13T06:08:46.038Z,0
2018-01-13T06:09:26.479Z,0
2018-01-13T06:10:06.855Z,0
2018-01-13T06:10:47.249Z,0
2018-01-13T06:11:27.708Z,0
2018-01-13T06:12:08.072Z,0
2018-01-13T06:12:48.410Z,0
2018-01-13T06:13:28.812Z,0
2018-01-13T06:14:09.256Z,0
2018-01-13T06:14:49.576Z,0
2018-01-13T06:15:29.952Z,0
2018-01-13T06:16:10.406Z,0
2018-01-13T06:16:50.722Z,0
2018-01-13T06:17:31.156Z,0
2018-01-13T06:18:11.460Z,0
2018-01-13T06:18:51.861Z,0
2018-01-13T06:19:32.369Z,0
2018-01-13T06:20:12.756Z,0
2018-01-13T06:20:53.142Z,0
2018-01-13T06:21:33.590Z,0
2018-01-13T06:22:14.655Z,0
2018-01-13T06:22:55.394Z,0
2018-01-13T06:23:35.832Z,0
2018-01-13T06:24:16.111Z,0
2018-01-13T06:24:56.577Z,0
2018-01-13T06:25:37.027Z,0
2018-01-13T06:26:17.440Z,0
2018-01-13T06:26:57.810Z,0
2018-01-13T06:27:38.221Z,0
2018-01-13T06:28:18.607Z,0
2018-01-13T06:28:58.940Z,0
2018-01-13T06:29:39.417Z,0
2018-01-13T06:30:19.768Z,0
2018-01-13T06:31:00.154Z,0
2018-01-13T06:31:40.513Z,0
2018-01-13T06:32:20.983Z,0
2018-01-13T06:33:01.320Z,0
2018-01-13T06:33:41.724Z,0
2018-01-13T06:34:22.125Z,0
2018-01-13T06:35:02.527Z,0
2018-01-13T06:35:42.993Z,0
2018-01-13T06:36:23.358Z,0
2018-01-13T06:37:03.776Z,0
2018-01-13T06:37:44.241Z,0
2018-01-13T06:38:24.541Z,0
2018-01-13T06:39:04.976Z,0
2018-01-13T06:39:45.305Z,0
2018-01-13T06:40:25.687Z,0
2018-01-13T06:41:06.129Z,0
2018-01-13T06:41:46.508Z,0
2018-01-13T06:42:26.863Z,0
2018-01-13T06:43:07.311Z,0
2018-01-13T06:43:47.738Z,0
2018-01-13T06:44:28.177Z,0
2018-01-13T06:45:08.570Z,0
2018-01-13T06:45:49.347Z,0
2018-01-13T06:46:30.755Z,0
2018-01-13T06:47:11.059Z,0
2018-01-13T06:47:51.505Z,0
2018-01-13T06:48:31.865Z,0
2018-01-13T06:49:12.319Z,0
2018-01-13T06:49:52.592Z,0
2018-01-13T06:50:33.025Z,0
2018-01-13T06:51:13.557Z,0
2018-01-13T06:51:54.000Z,0
2018-01-13T06:52:34.502Z,0
2018-01-13T06:53:14.815Z,0
2018-01-13T06:53:55.634Z,0
2018-01-13T06:54:36.813Z,0
2018-01-13T06:55:17.672Z,0
2018-01-13T06:55:58.015Z,0
2018-01-13T06:56:38.410Z,0
2018-01-13T06:57:18.974Z,0
2018-01-13T06:57:59.427Z,0
2018-01-13T06:58:39.747Z,0
2018-01-13T06:59:20.156Z,0
2018-01-13T07:00:00.586Z,0
2018-01-13T07:00:41.039Z,0
2018-01-13T07:01:21.393Z,0
2018-01-13T07:02:01.706Z,0
2018-01-13T07:02:42.150Z,0
2018-01-13T07:03:22.554Z,0
2018-01-13T07:04:02.896Z,0
2018-01-13T07:04:43.362Z,0
2018-01-13T07:05:23.729Z,0
2018-01-13T07:06:04.161Z,0
2018-01-13T07:06:44.479Z,0
2018-01-13T07:07:24.912Z,0
2018-01-13T07:08:05.336Z,0
2018-01-13T07:08:45.710Z,0
2018-01-13T07:09:26.142Z,0
2018-01-13T07:10:06.543Z,0
2018-01-13T07:10:46.928Z,0
2018-01-13T07:11:27.474Z,0
2018-01-13T07:12:07.779Z,4
2018-01-13T07:12:48.216Z,4
2018-01-13T07:13:28.584Z,4
2018-01-13T07:14:09.071Z,4
2018-01-13T07:14:49.528Z,0
2018-01-13T07:15:29.952Z,0
2018-01-13T07:16:10.354Z,0
2018-01-13T07:16:50.760Z,4
2018-01-13T07:17:31.143Z,4
2018-01-13T07:18:11.571Z,4
2018-01-13T07:18:51.985Z,4
2018-01-13T07:19:32.344Z,4
2018-01-13T07:20:12.773Z,4
2018-01-13T07:20:53.238Z,0
2018-01-13T07:21:33.515Z,4
2018-01-13T07:22:13.868Z,4
2018-01-13T07:22:54.301Z,4
2018-01-13T07:23:34.689Z,4
2018-01-13T07:24:15.107Z,4
2018-01-13T07:24:55.536Z,4
2018-01-13T07:25:35.854Z,8
2018-01-13T07:26:16.298Z,4
2018-01-13T07:26:56.808Z,4
2018-01-13T07:27:37.162Z,4
2018-01-13T07:28:17.556Z,8
2018-01-13T07:28:57.923Z,8
2018-01-13T07:29:38.281Z,8
2018-01-13T07:30:18.803Z,8
2018-01-13T07:30:59.588Z,8
2018-01-13T07:31:40.346Z,8
2018-01-13T07:32:20.680Z,12
2018-01-13T07:33:01.037Z,8
2018-01-13T07:33:41.455Z,8
2018-01-13T07:34:21.867Z,12
2018-01-13T07:35:02.239Z,8
2018-01-13T07:35:42.646Z,12
2018-01-13T07:36:23.052Z,12
2018-01-13T07:37:03.451Z,12
2018-01-13T07:37:43.838Z,12
2018-01-13T07:38:24.171Z,16
2018-01-13T07:39:04.644Z,16
2018-01-13T07:39:44.960Z,12
2018-01-13T07:40:25.454Z,16
2018-01-13T07:41:05.833Z,16
2018-01-13T07:41:46.295Z,16
2018-01-13T07:42:26.746Z,16
2018-01-13T07:43:07.188Z,16
2018-01-13T07:43:47.557Z,16
2018-01-13T07:44:28.034Z,20
2018-01-13T07:45:08.419Z,16
2018-01-13T07:45:48.887Z,20
2018-01-13T07:46:29.233Z,20
2018-01-13T07:47:09.754Z,20
2018-01-13T07:47:50.020Z,16
2018-01-13T07:48:30.471Z,16
2018-01-13T07:49:10.832Z,24
2018-01-13T07:49:51.437Z,24
2018-01-13T07:50:31.867Z,24
2018-01-13T07:51:12.533Z,24
2018-01-13T07:51:52.834Z,24
2018-01-13T07:52:33.292Z,20
2018-01-13T07:53:13.625Z,24
2018-01-13T07:53:54.082Z,20
2018-01-13T07:54:34.527Z,24
2018-01-13T07:55:14.856Z,24
2018-01-13T07:55:55.259Z,24
2018-01-13T07:56:35.861Z,20
2018-01-13T07:57:16.074Z,24
2018-01-13T07:57:56.468Z,24
2018-01-13T07:58:36.880Z,24
2018-01-13T07:59:17.236Z,28
2018-01-13T07:59:57.658Z,24
2018-01-13T08:00:38.059Z,28
2018-01-13T08:01:18.465Z,28
2018-01-13T08:01:58.997Z,32
2018-01-13T08:02:39.394Z,32
2018-01-13T08:03:20.304Z,32
2018-01-13T08:04:00.746Z,36
2018-01-13T08:04:41.068Z,36
2018-01-13T08:05:21.426Z,40
2018-01-13T08:06:01.922Z,40
2018-01-13T08:06:42.288Z,44
2018-01-13T08:07:22.745Z,48
2018-01-13T08:08:03.156Z,44
2018-01-13T08:08:43.700Z,44
2018-01-13T08:09:24.150Z,52
2018-01-13T08:10:04.922Z,44
2018-01-13T08:10:45.313Z,48
2018-01-13T08:11:25.670Z,52
2018-01-13T08:12:06.090Z,48
2018-01-13T08:12:46.444Z,52
2018-01-13T08:13:27.122Z,52
2018-01-13T08:14:07.480Z,56
2018-01-13T08:14:47.849Z,56
2018-01-13T08:15:28.242Z,56
2018-01-13T08:16:08.700Z,56
2018-01-13T08:16:49.047Z,60
2018-01-13T08:17:29.514Z,56
2018-01-13T08:18:10.431Z,52
2018-01-13T08:18:50.527Z,52
2018-01-13T08:19:30.779Z,52
2018-01-13T08:20:11.198Z,52
2018-01-13T08:20:52.152Z,52
2018-01-13T08:21:32.438Z,52
2018-01-13T08:22:12.721Z,52
2018-01-13T08:22:53.143Z,56
2018-01-13T08:23:33.608Z,60
2018-01-13T08:24:14.178Z,60
2018-01-13T08:24:54.675Z,60
2018-01-13T08:25:34.997Z,56
2018-01-13T08:26:16.080Z,56
2018-01-13T08:26:55.890Z,56
2018-01-13T08:27:36.698Z,56
2018-01-13T08:28:17.092Z,56
2018-01-13T08:28:57.443Z,56
2018-01-13T08:29:37.898Z,52
2018-01-13T08:30:18.326Z,52
2018-01-13T08:30:58.730Z,52
2018-01-13T08:31:39.111Z,52
2018-01-13T08:32:19.582Z,52
2018-01-13T08:33:00.178Z,52
2018-01-13T08:33:40.529Z,48
2018-01-13T08:34:21.237Z,48
2018-01-13T08:35:01.638Z,52
2018-01-13T08:35:43.068Z,48
2018-01-13T08:36:23.341Z,52
2018-01-13T08:37:03.996Z,56
2018-01-13T08:37:44.709Z,60
2018-01-13T08:38:24.972Z,68
2018-01-13T08:39:05.408Z,68
2018-01-13T08:39:45.971Z,72
2018-01-13T08:40:26.527Z,68
2018-01-13T08:41:06.919Z,72
2018-01-13T08:41:47.489Z,72
2018-01-13T08:42:28.215Z,68
2018-01-13T08:43:08.698Z,80
2018-01-13T08:43:49.115Z,88
2018-01-13T08:44:29.793Z,104
2018-01-13T08:45:10.154Z,120
2018-01-13T08:45:51.833Z,124
2018-01-13T08:46:32.668Z,132
2018-01-13T08:47:13.340Z,136
2018-01-13T08:47:53.754Z,144
2018-01-13T08:48:35.810Z,140
2018-01-13T08:49:31.096Z,144
2018-01-13T08:50:12.048Z,144
2018-01-13T08:50:54.288Z,144
2018-01-13T08:51:34.752Z,144
2018-01-13T08:52:16.326Z,148
2018-01-13T08:52:56.956Z,144
2018-01-13T08:53:37.531Z,144
2018-01-13T08:54:18.146Z,144
2018-01-13T08:54:58.533Z,148
2018-01-13T08:55:38.940Z,156
2018-01-13T08:56:20.660Z,180
2018-01-13T08:57:01.177Z,184
2018-01-13T08:57:41.797Z,192
2018-01-13T08:58:22.140Z,196
2018-01-13T08:59:03.239Z,200
2018-01-13T08:59:43.513Z,200
2018-01-13T09:00:23.939Z,204
2018-01-13T09:01:04.894Z,204
2018-01-13T09:01:45.381Z,204
2018-01-13T09:02:26.004Z,208
2018-01-13T09:03:06.259Z,212
2018-01-13T09:03:46.720Z,216
2018-01-13T09:04:27.059Z,220
2018-01-13T09:05:07.864Z,208
2018-01-13T09:05:49.032Z,212
2018-01-13T09:06:29.770Z,212
2018-01-13T09:07:10.219Z,208
2018-01-13T09:07:51.432Z,208
2018-01-13T09:08:31.812Z,216
2018-01-13T09:09:12.052Z,224
2018-01-13T09:09:53.327Z,220
2018-01-13T09:10:33.757Z,208
2018-01-13T09:11:14.198Z,212
2018-01-13T09:11:54.850Z,204
2018-01-13T09:12:35.704Z,208
2018-01-13T09:13:17.027Z,208
2018-01-13T09:13:58.161Z,212
2018-01-13T09:14:38.658Z,204
2018-01-13T09:15:19.095Z,204
2018-01-13T09:16:00.085Z,208
2018-01-13T09:16:40.453Z,204
2018-01-13T09:17:20.671Z,208
2018-01-13T09:18:01.866Z,208
2018-01-13T09:18:41.896Z,216
2018-01-13T09:19:22.907Z,224
2018-01-13T09:20:04.030Z,212
2018-01-13T09:20:44.755Z,228
2018-01-13T09:21:25.222Z,236
2018-01-13T09:22:05.640Z,228
2018-01-13T09:22:47.534Z,232
2018-01-13T09:23:28.726Z,240
2018-01-13T09:24:09.260Z,244
2018-01-13T09:24:50.054Z,240
2018-01-13T09:25:30.906Z,264
2018-01-13T09:26:12.879Z,256
2018-01-13T09:26:53.779Z,256
2018-01-13T09:27:36.327Z,256
2018-01-13T09:28:16.696Z,268
2018-01-13T09:28:57.537Z,284
2018-01-13T09:29:37.937Z,280
2018-01-13T09:30:18.723Z,276
2018-01-13T09:30:59.094Z,260
2018-01-13T09:31:40.954Z,264
2018-01-13T09:32:22.196Z,268
2018-01-13T09:33:03.140Z,260
2018-01-13T09:33:43.730Z,248
2018-01-13T09:34:24.040Z,248
2018-01-13T09:35:06.182Z,244
2018-01-13T09:35:47.728Z,248
2018-01-13T09:36:28.161Z,252
2018-01-13T09:37:33.140Z,252
2018-01-13T09:38:19.970Z,236
2018-01-13T09:39:02.096Z,240
2018-01-13T09:39:43.796Z,248
2018-01-13T09:40:24.031Z,244
2018-01-13T09:41:05.427Z,244
2018-01-13T09:43:32.996Z,256
2018-01-13T09:44:13.349Z,248
2018-01-13T09:44:53.771Z,240
2018-01-13T09:45:34.703Z,236
2018-01-13T09:46:15.111Z,232
2018-01-13T09:46:55.453Z,232
2018-01-13T09:47:35.995Z,232
2018-01-13T09:48:16.278Z,232
2018-01-13T09:48:56.665Z,224
2018-01-13T09:49:37.099Z,220
2018-01-13T09:50:17.651Z,224
2018-01-13T09:50:58.100Z,224
2018-01-13T09:51:38.522Z,224
2018-01-13T09:52:18.926Z,236
2018-01-13T09:52:59.383Z,244
2018-01-13T09:53:39.769Z,248
2018-01-13T09:54:20.607Z,248
2018-01-13T09:55:00.909Z,240
2018-01-13T09:55:41.310Z,252
2018-01-13T09:56:22.097Z,260
2018-01-13T09:57:03.201Z,260
2018-01-13T09:57:43.511Z,268
2018-01-13T09:58:24.045Z,276
2018-01-13T09:59:04.379Z,280
2018-01-13T09:59:44.864Z,276
2018-01-13T10:00:25.264Z,276
2018-01-13T10:01:05.748Z,276
2018-01-13T10:01:46.090Z,260
2018-01-13T10:03:45.757Z,264
2018-01-13T10:04:26.186Z,268
2018-01-13T10:42:12.755Z,440
2018-01-13T10:43:05.328Z,460
2018-01-13T10:44:03.870Z,464
2018-01-13T10:44:57.259Z,476
2018-01-13T10:45:49.586Z,484
2018-01-13T10:46:42.034Z,520
2018-01-13T10:47:35.130Z,520
2018-01-13T10:48:27.805Z,492
2018-01-13T10:49:20.471Z,536
2018-01-13T10:50:14.089Z,600
2018-01-13T10:51:10.592Z,588
2018-01-13T10:52:03.108Z,572
2018-01-13T10:52:56.307Z,604
2018-01-13T10:53:49.043Z,632
2018-01-13T10:54:40.838Z,720
2018-01-13T10:55:33.948Z,708
2018-01-13T10:56:28.804Z,724
2018-01-13T10:57:22.795Z,808
2018-01-13T10:58:22.202Z,892
2018-01-13T10:59:16.583Z,924
2018-01-13T11:00:09.740Z,848
2018-01-13T11:01:04.026Z,908
2018-01-13T11:01:57.144Z,920
2018-01-13T11:02:50.781Z,824
2018-01-13T11:03:44.054Z,852
2018-01-13T11:04:37.921Z,920
2018-01-13T11:05:42.155Z,912
2018-01-13T11:06:36.376Z,924
2018-01-13T11:07:30.211Z,976
2018-01-13T11:08:23.453Z,964
2018-01-13T11:09:19.100Z,972
2018-01-13T11:10:11.957Z,900
2018-01-13T11:11:04.043Z,912
2018-01-13T11:11:58.807Z,936
2018-01-13T11:12:52.724Z,904
2018-01-13T11:13:45.646Z,908
2018-01-13T11:14:38.803Z,932
2018-01-13T11:15:31.748Z,892
2018-01-13T11:16:23.585Z,908
2018-01-13T11:17:14.433Z,880
2018-01-13T11:17:54.699Z,900
2018-01-13T11:18:35.740Z,932
2018-01-13T11:19:16.630Z,904
2018-01-13T11:19:58.897Z,900
2018-01-13T11:20:39.393Z,860
2018-01-13T11:21:19.992Z,876
2018-01-13T11:22:00.284Z,872
2018-01-13T11:22:40.888Z,852
2018-01-13T11:23:21.932Z,844
2018-01-13T11:24:02.235Z,844
2018-01-13T11:24:43.343Z,848
2018-01-13T11:25:24.086Z,876
2018-01-13T11:26:04.295Z,864
2018-01-13T11:26:46.882Z,900
2018-01-13T11:27:27.514Z,896
2018-01-13T11:28:08.459Z,840
2018-01-13T11:28:49.014Z,924
2018-01-13T11:29:30.385Z,908
2018-01-13T11:30:11.388Z,892
2018-01-13T11:30:52.171Z,892
2018-01-13T11:31:33.203Z,876
2018-01-13T11:32:14.882Z,868
2018-01-13T11:32:56.372Z,860
2018-01-13T11:33:37.071Z,848
2018-01-13T11:34:19.418Z,836
2018-01-13T11:35:01.294Z,888